Skaelskor, Denmark
Current Conditions -  °F | °C
As of 2:20 AM on Wednesday 22 Oct 2014 (Local Time) from EKRK Reporting Station
Rain Showers Rain Showers  
Wind Chill: 54°   Ceiling: 1400
Heat Index: 54°   Visibility: 5mi
Dew Point: 52°   Wind: 6mph
Humidity: 94%   Direction: 150°SSE
Pressure: 29.41"   Gusts: NA
Location:  55.25°N, 11.29°E
Report Text: EKRK 220020Z AUTO 15005KT 8000NDV -SHRA FEW002/// SCT009///BKN014/// OVC017/// 12/11 Q0996
Loading
Personal Weather Stations






























Interactive Weather Map
Tropical Storm Tracking
New forecast layout! Learn more

10-Day Weather Forecast

Advertisements
Track Severe Weather on mobile